Time;durP1;ratioP1;P1;durP2;ratioP2;P2;SDS_P1;SDS_P2;PMS_P1;PMS_P2;Temp;Humidity;BMP_temperature;BMP_pressure;BME280_temperature;BME280_humidity;BME280_pressure;Samples;Min_cycle;Max_cycle;Signal;HPM_P1;HPM_P2
2022/10/13 00:02:24;;;;;;;11.45;3.03;;;9.00;86.90;;;;;;5073479;28;20305;-80
2022/10/13 00:04:49;;;;;;;9.18;2.83;;;9.00;87.00;;;;;;5059954;28;20028;-81
2022/10/13 00:07:15;;;;;;;10.70;2.85;;;9.00;86.90;;;;;;5070136;28;20054;-80
2022/10/13 00:09:40;;;;;;;11.15;3.53;;;9.00;87.00;;;;;;5081997;28;20024;-80
2022/10/13 00:12:07;;;;;;;14.27;3.42;;;9.00;87.00;;;;;;5069712;28;20031;-79
2022/10/13 00:14:33;;;;;;;10.57;3.20;;;8.90;87.10;;;;;;5072045;28;20028;-80
2022/10/13 00:16:58;;;;;;;10.52;3.15;;;8.90;87.40;;;;;;5067842;28;20466;-80
2022/10/13 00:19:23;;;;;;;5.80;2.72;;;8.80;87.50;;;;;;5066312;28;20028;-80
2022/10/13 00:21:49;;;;;;;14.00;3.10;;;8.80;87.80;;;;;;5060142;28;20028;-80
2022/10/13 00:24:14;;;;;;;11.57;3.33;;;8.70;87.80;;;;;;5069512;28;20112;-80
2022/10/13 00:26:40;;;;;;;14.15;3.35;;;8.70;88.00;;;;;;5087403;28;20383;-80
2022/10/13 00:29:05;;;;;;;12.55;3.65;;;8.60;88.30;;;;;;5074348;28;20028;-80
2022/10/13 00:31:31;;;;;;;8.25;3.35;;;8.60;88.60;;;;;;5070716;28;20429;-80
2022/10/13 00:33:59;;;;;;;9.00;3.38;;;8.50;88.60;;;;;;5067220;28;20120;-80
2022/10/13 00:36:28;;;;;;;10.20;3.33;;;8.40;88.70;;;;;;5071987;28;20020;-80
2022/10/13 00:38:55;;;;;;;9.65;3.45;;;8.30;89.10;;;;;;5077584;28;20052;-80
2022/10/13 00:41:20;;;;;;;11.68;3.10;;;8.30;89.40;;;;;;5067151;28;20029;-80
2022/10/13 00:43:59;;;;;;;8.65;4.07;;;8.30;89.40;;;;;;5074646;28;20035;-80
2022/10/13 00:46:31;;;;;;;9.18;3.35;;;8.20;89.80;;;;;;5065165;28;20118;-81
2022/10/13 00:49:10;;;;;;;7.40;3.78;;;8.10;90.00;;;;;;5066583;28;20047;-80
2022/10/13 00:51:39;;;;;;;13.07;4.03;;;8.10;90.20;;;;;;5074855;28;20062;-80
2022/10/13 00:54:08;;;;;;;17.48;3.80;;;8.00;90.40;;;;;;5074847;28;20039;-80
2022/10/13 00:56:36;;;;;;;11.90;4.32;;;7.90;90.60;;;;;;5072310;28;21192;-80
2022/10/13 00:59:04;;;;;;;15.35;4.20;;;7.80;90.70;;;;;;5071141;28;20043;-80
2022/10/13 01:01:30;;;;;;;13.18;4.07;;;7.80;91.10;;;;;;5068211;28;20127;-80
2022/10/13 01:03:56;;;;;;;8.10;4.15;;;7.70;91.20;;;;;;5067129;28;20130;-80
2022/10/13 01:06:22;;;;;;;11.52;4.43;;;7.80;91.70;;;;;;5069646;28;20103;-80
2022/10/13 01:08:47;;;;;;;11.65;4.32;;;7.80;91.80;;;;;;5073999;28;22551;-80
2022/10/13 01:11:46;;;;;;;13.77;4.65;;;7.80;91.80;;;;;;5076324;28;20436;-80
2022/10/13 01:14:28;;;;;;;12.25;3.45;;;7.80;91.90;;;;;;5076609;28;20060;-80
2022/10/13 01:17:02;;;;;;;10.35;4.40;;;7.80;91.90;;;;;;5078410;28;20024;-80
2022/10/13 01:19:45;;;;;;;12.30;5.07;;;7.80;92.00;;;;;;5076635;28;20483;-80
2022/10/13 01:22:38;;;;;;;11.70;4.65;;;7.80;92.10;;;;;;5069530;28;20059;-80
2022/10/13 01:25:39;;;;;;;13.32;4.65;;;7.80;92.00;;;;;;5090260;28;20039;-79
2022/10/13 01:28:26;;;;;;;12.32;4.68;;;7.70;92.10;;;;;;5058532;28;20352;-79
2022/10/13 01:31:04;;;;;;;13.88;4.85;;;7.70;92.50;;;;;;5072363;28;20436;-79
2022/10/13 01:33:42;;;;;;;14.63;4.20;;;7.70;92.40;;;;;;5067233;28;20029;-79
2022/10/13 01:36:15;;;;;;;12.90;4.70;;;7.60;92.60;;;;;;5068739;28;20021;-79
2022/10/13 01:39:27;;;;;;;13.50;4.95;;;7.60;92.90;;;;;;5067915;28;20452;-80
2022/10/13 01:41:59;;;;;;;12.57;4.57;;;7.50;92.80;;;;;;4979836;28;20075;-79
2022/10/13 01:44:30;;;;;;;13.80;4.45;;;7.50;93.10;;;;;;5059445;28;20059;-79
2022/10/13 01:46:57;;;;;;;16.45;5.10;;;7.50;93.20;;;;;;5065403;28;20021;-79
2022/10/13 01:49:28;;;;;;;9.00;4.80;;;7.40;93.50;;;;;;5080530;28;20386;-79
2022/10/13 01:51:58;;;;;;;15.25;5.55;;;7.40;93.40;;;;;;5077108;28;20452;-80
2022/10/13 01:54:23;;;;;;;11.68;5.78;;;7.40;93.60;;;;;;5070556;28;20328;-79
2022/10/13 01:56:53;;;;;;;12.07;5.28;;;7.50;93.90;;;;;;5064126;28;20115;-79
2022/10/13 01:59:18;;;;;;;10.52;5.70;;;7.40;93.70;;;;;;5075695;28;20383;-79
2022/10/13 02:01:59;;;;;;;14.60;6.03;;;7.40;93.90;;;;;;5071350;28;20100;-80
2022/10/13 02:04:47;;;;;;;8.52;4.97;;;7.40;94.00;;;;;;5072434;28;20032;-79
2022/10/13 02:07:16;;;;;;;13.55;5.82;;;7.40;94.20;;;;;;5070446;28;20499;-79
2022/10/13 02:09:58;;;;;;;13.45;6.20;;;7.40;94.20;;;;;;5068514;28;20050;-79
2022/10/13 02:12:31;;;;;;;15.63;6.53;;;7.50;94.40;;;;;;5075769;28;20046;-79
2022/10/13 02:14:58;;;;;;;11.80;5.15;;;7.40;94.20;;;;;;5079930;28;20094;-79
2022/10/13 02:17:26;;;;;;;19.33;6.90;;;7.50;94.60;;;;;;5067407;28;20067;-79
2022/10/13 02:19:53;;;;;;;18.70;6.50;;;7.50;94.40;;;;;;5063250;28;20131;-79
2022/10/13 02:22:21;;;;;;;18.75;7.07;;;7.60;94.40;;;;;;5066546;28;20041;-79
2022/10/13 02:24:46;;;;;;;14.77;7.25;;;7.60;94.30;;;;;;5063096;28;20033;-80
2022/10/13 02:27:12;;;;;;;19.90;6.50;;;7.60;94.30;;;;;;5071967;28;20040;-80
2022/10/13 02:29:52;;;;;;;14.25;6.70;;;7.60;94.20;;;;;;5065118;28;20060;-80
2022/10/13 02:32:18;;;;;;;17.92;6.80;;;7.70;94.20;;;;;;5062562;28;20056;-80
2022/10/13 02:34:44;;;;;;;14.07;6.85;;;7.60;94.10;;;;;;5065075;28;20158;-80
2022/10/13 02:37:10;;;;;;;11.30;6.53;;;7.70;94.30;;;;;;5062375;28;20044;-80
2022/10/13 02:39:35;;;;;;;15.65;6.78;;;7.60;94.20;;;;;;5072782;28;20437;-79
2022/10/13 02:42:01;;;;;;;17.83;6.63;;;7.60;94.20;;;;;;5070091;28;20028;-80
2022/10/13 02:44:26;;;;;;;12.68;6.88;;;7.70;94.20;;;;;;5072316;28;20067;-80
2022/10/13 02:46:52;;;;;;;16.33;7.07;;;7.70;94.10;;;;;;5070593;28;20068;-80
2022/10/13 02:49:17;;;;;;;14.95;6.25;;;7.70;94.10;;;;;;5080785;28;20444;-80
2022/10/13 02:51:42;;;;;;;13.65;7.00;;;7.70;94.00;;;;;;5076017;28;20036;-80
2022/10/13 02:54:08;;;;;;;13.70;6.43;;;7.70;93.90;;;;;;5066644;28;20248;-80
2022/10/13 02:56:33;;;;;;;13.02;5.95;;;7.60;93.90;;;;;;5072887;28;20043;-80
2022/10/13 02:58:59;;;;;;;10.50;6.05;;;7.50;94.00;;;;;;5067130;28;20055;-80
2022/10/13 03:01:24;;;;;;;19.98;6.65;;;7.50;94.10;;;;;;5068526;28;20037;-80
2022/10/13 03:03:50;;;;;;;15.18;6.40;;;7.30;94.00;;;;;;5069083;28;20390;-80
2022/10/13 03:06:15;;;;;;;14.40;6.32;;;7.30;94.40;;;;;;5071947;28;20378;-80
2022/10/13 03:08:41;;;;;;;15.48;7.40;;;7.30;94.50;;;;;;5069486;28;20099;-80
2022/10/13 03:11:06;;;;;;;14.27;6.50;;;7.30;94.70;;;;;;5059047;28;20475;-80
2022/10/13 03:13:32;;;;;;;14.25;7.10;;;7.30;94.80;;;;;;5082581;28;20040;-80
2022/10/13 03:15:57;;;;;;;15.98;6.70;;;7.40;94.80;;;;;;5061047;28;20103;-80
2022/10/13 03:18:23;;;;;;;16.25;7.63;;;7.50;94.90;;;;;;5071637;28;20037;-80
2022/10/13 03:20:59;;;;;;;21.08;7.90;;;7.50;94.90;;;;;;5059972;28;20378;-80
2022/10/13 03:23:25;;;;;;;14.90;7.35;;;7.50;94.70;;;;;;5071549;28;20032;-80
2022/10/13 03:25:50;;;;;;;15.35;6.97;;;7.60;94.60;;;;;;5058930;28;20033;-80
2022/10/13 03:28:16;;;;;;;15.45;6.78;;;7.60;94.50;;;;;;5058152;28;20396;-80
2022/10/13 03:30:41;;;;;;;20.52;7.18;;;7.60;94.40;;;;;;5062446;28;20465;-80
2022/10/13 03:33:07;;;;;;;13.95;7.10;;;7.60;94.30;;;;;;5070873;28;20103;-80
2022/10/13 03:35:32;;;;;;;14.73;6.95;;;7.60;94.20;;;;;;5069022;28;20388;-80
2022/10/13 03:37:58;;;;;;;14.15;7.10;;;7.60;94.40;;;;;;5067425;28;20044;-79
2022/10/13 03:40:24;;;;;;;16.98;7.15;;;7.70;94.30;;;;;;5069060;28;20037;-79
2022/10/13 03:42:49;;;;;;;13.05;6.55;;;7.70;94.30;;;;;;5069132;28;20085;-80
2022/10/13 03:45:14;;;;;;;17.63;7.00;;;7.70;94.10;;;;;;5064968;28;20021;-79
2022/10/13 03:47:40;;;;;;;15.32;7.15;;;7.70;94.20;;;;;;5070079;28;20032;-79
2022/10/13 03:50:06;;;;;;;12.88;6.45;;;7.70;94.20;;;;;;5069261;28;20033;-80
2022/10/13 03:52:32;;;;;;;17.00;6.75;;;7.70;94.20;;;;;;5070414;28;20037;-80
2022/10/13 03:54:57;;;;;;;15.55;6.72;;;7.70;94.10;;;;;;5069972;28;20111;-79
2022/10/13 03:57:23;;;;;;;16.05;7.03;;;7.70;94.20;;;;;;5067724;28;20079;-80
2022/10/13 03:59:48;;;;;;;15.43;7.30;;;7.70;94.20;;;;;;5070741;28;20066;-79
2022/10/13 04:02:14;;;;;;;16.00;6.72;;;7.70;94.10;;;;;;5072448;28;20093;-79
2022/10/13 04:04:39;;;;;;;13.23;6.68;;;7.70;94.20;;;;;;5070347;28;20033;-80
2022/10/13 04:07:06;;;;;;;12.68;6.90;;;7.60;94.40;;;;;;5072944;28;20127;-80
2022/10/13 04:09:32;;;;;;;16.95;7.13;;;7.70;94.50;;;;;;5064135;28;20438;-79
2022/10/13 04:11:57;;;;;;;14.38;6.45;;;7.60;94.40;;;;;;5068265;28;20028;-80
2022/10/13 04:14:23;;;;;;;19.00;7.63;;;7.60;94.50;;;;;;5070148;28;20479;-80
2022/10/13 04:16:48;;;;;;;16.42;6.68;;;7.60;94.60;;;;;;5066454;28;20028;-80
2022/10/13 04:19:14;;;;;;;14.07;7.25;;;7.60;94.70;;;;;;5062698;28;20032;-80
2022/10/13 04:21:41;;;;;;;13.57;7.82;;;7.70;94.80;;;;;;5069890;28;20043;-80
2022/10/13 04:24:08;;;;;;;15.75;7.70;;;7.70;95.00;;;;;;5060650;28;20036;-80
2022/10/13 04:26:35;;;;;;;15.90;7.85;;;7.70;94.90;;;;;;5059826;28;20036;-81
2022/10/13 04:29:03;;;;;;;20.30;8.82;;;7.80;95.10;;;;;;5067859;28;20033;-68
2022/10/13 04:31:29;;;;;;;17.02;8.05;;;7.80;95.00;;;;;;5065880;28;20091;-68
2022/10/13 04:33:55;;;;;;;15.57;8.10;;;7.90;95.00;;;;;;5065812;28;20418;-68
2022/10/13 04:36:21;;;;;;;13.88;7.80;;;8.00;95.00;;;;;;5059186;28;20045;-67
2022/10/13 04:38:47;;;;;;;13.43;8.13;;;8.00;95.00;;;;;;5076573;28;20056;-70
2022/10/13 04:41:14;;;;;;;14.88;7.70;;;8.00;94.90;;;;;;5062920;28;20507;-67
2022/10/13 04:43:39;;;;;;;17.67;8.40;;;7.90;94.80;;;;;;5065866;28;20029;-67
2022/10/13 04:46:08;;;;;;;17.05;8.75;;;8.00;94.90;;;;;;5065634;28;20040;-67
2022/10/13 04:48:34;;;;;;;13.60;8.13;;;8.00;94.90;;;;;;5068935;28;20056;-67
2022/10/13 04:51:06;;;;;;;13.40;7.65;;;8.00;94.90;;;;;;5065654;28;20095;-67
2022/10/13 04:53:31;;;;;;;18.13;8.55;;;8.00;94.90;;;;;;5058773;28;20032;-68
2022/10/13 04:56:04;;;;;;;18.70;8.77;;;8.10;95.10;;;;;;5064373;28;20021;-66
2022/10/13 04:58:30;;;;;;;17.33;8.65;;;8.10;95.10;;;;;;5061277;28;20067;-65
2022/10/13 05:00:55;;;;;;;17.77;8.27;;;8.10;95.10;;;;;;5068358;28;20367;-66
2022/10/13 05:03:21;;;;;;;16.80;8.32;;;8.10;95.00;;;;;;5066609;28;20429;-65
2022/10/13 05:05:47;;;;;;;22.80;9.00;;;8.10;95.00;;;;;;5064807;28;20593;-65
2022/10/13 05:08:12;;;;;;;21.73;8.63;;;8.20;95.10;;;;;;5067068;28;20109;-66
2022/10/13 05:10:38;;;;;;;18.10;8.63;;;8.20;95.10;;;;;;5059337;28;20574;-66
2022/10/13 05:13:04;;;;;;;21.05;8.98;;;8.20;95.10;;;;;;5070330;28;20357;-65
2022/10/13 05:15:29;;;;;;;18.08;9.88;;;8.30;95.20;;;;;;5055319;28;20034;-65
2022/10/13 05:17:54;;;;;;;19.75;10.10;;;8.30;95.10;;;;;;5068506;28;20039;-65
2022/10/13 05:20:20;;;;;;;17.88;9.32;;;8.40;95.10;;;;;;5059756;28;20074;-65
2022/10/13 05:22:45;;;;;;;16.52;9.10;;;8.40;95.10;;;;;;5067658;28;20052;-65
2022/10/13 05:25:11;;;;;;;20.20;9.32;;;8.50;95.10;;;;;;5064724;28;20056;-67
2022/10/13 05:27:36;;;;;;;22.38;10.52;;;8.50;95.00;;;;;;5066218;28;20032;-67
2022/10/13 05:30:02;;;;;;;20.73;9.82;;;8.50;94.90;;;;;;5066642;28;20036;-69
2022/10/13 05:32:28;;;;;;;18.55;9.32;;;8.50;95.00;;;;;;5066702;28;20056;-68
2022/10/13 05:34:53;;;;;;;21.17;9.13;;;8.50;94.90;;;;;;5054601;28;20068;-67
2022/10/13 05:37:21;;;;;;;20.13;9.05;;;8.50;94.90;;;;;;5065147;28;20090;-67
2022/10/13 05:39:47;;;;;;;14.52;8.88;;;8.50;94.90;;;;;;5065583;28;20429;-67
2022/10/13 05:42:12;;;;;;;17.27;8.82;;;8.40;94.90;;;;;;5059287;28;20043;-67
2022/10/13 05:44:38;;;;;;;18.60;8.52;;;8.40;94.90;;;;;;5061048;28;20051;-67
2022/10/13 05:47:04;;;;;;;14.77;9.35;;;8.40;94.90;;;;;;5068031;28;20112;-67
2022/10/13 05:49:29;;;;;;;15.45;8.80;;;8.40;94.90;;;;;;5058383;28;20398;-70
2022/10/13 05:52:02;;;;;;;20.95;9.57;;;8.40;95.00;;;;;;5064471;28;20035;-68
2022/10/13 05:54:45;;;;;;;21.80;9.57;;;8.40;95.10;;;;;;5068661;28;20052;-66
2022/10/13 05:57:48;;;;;;;17.67;8.35;;;8.50;95.10;;;;;;5066136;28;20497;-66
2022/10/13 06:00:16;;;;;;;21.42;10.00;;;8.50;95.10;;;;;;5062603;28;20072;-67
2022/10/13 06:02:52;;;;;;;14.93;8.95;;;8.50;95.00;;;;;;5062296;28;20181;-67
2022/10/13 06:05:20;;;;;;;23.52;9.85;;;8.60;95.00;;;;;;5065854;28;20025;-69
2022/10/13 06:07:47;;;;;;;22.05;10.15;;;8.60;95.00;;;;;;5067722;28;20068;-67
2022/10/13 06:10:13;;;;;;;18.05;8.95;;;8.60;94.90;;;;;;5065691;28;20069;-67
2022/10/13 06:12:38;;;;;;;15.05;9.57;;;8.60;94.90;;;;;;5068232;28;20025;-66
2022/10/13 06:15:04;;;;;;;20.27;9.23;;;8.60;94.90;;;;;;5066487;28;20402;-68
2022/10/13 06:17:29;;;;;;;19.05;9.25;;;8.60;94.90;;;;;;5056052;28;20044;-67
2022/10/13 06:19:55;;;;;;;19.58;9.73;;;8.60;94.90;;;;;;5067105;28;20032;-67
2022/10/13 06:22:20;;;;;;;19.33;9.25;;;8.60;95.00;;;;;;5071448;28;20413;-67
2022/10/13 06:24:46;;;;;;;22.25;9.48;;;8.70;95.00;;;;;;5069345;28;20043;-67
2022/10/13 06:27:12;;;;;;;23.95;10.10;;;8.70;95.00;;;;;;5074747;28;20399;-68
2022/10/13 06:29:37;;;;;;;24.58;9.57;;;8.70;94.90;;;;;;5071701;28;20405;-66
2022/10/13 06:32:03;;;;;;;23.48;10.25;;;8.80;94.90;;;;;;5069111;28;20134;-66
2022/10/13 06:34:29;;;;;;;17.85;9.52;;;8.80;94.80;;;;;;5061677;28;20112;-67
2022/10/13 06:36:54;;;;;;;23.20;10.20;;;8.80;94.80;;;;;;5070321;28;20124;-66
2022/10/13 06:39:20;;;;;;;24.48;10.98;;;8.80;94.80;;;;;;5067873;28;20048;-66
2022/10/13 06:41:45;;;;;;;19.38;10.45;;;8.90;94.70;;;;;;5066013;28;20090;-67
2022/10/13 06:44:11;;;;;;;20.98;10.32;;;9.00;94.60;;;;;;5063391;28;20564;-67
2022/10/13 06:46:36;;;;;;;15.88;9.77;;;9.00;94.60;;;;;;5071093;28;20455;-67
2022/10/13 06:49:02;;;;;;;22.88;10.75;;;9.00;94.50;;;;;;5071189;28;20086;-66
2022/10/13 06:51:27;;;;;;;15.93;8.65;;;9.10;94.50;;;;;;5068737;28;20036;-67
2022/10/13 06:53:55;;;;;;;22.55;10.38;;;9.10;94.40;;;;;;5079201;28;20105;-67
2022/10/13 06:56:20;;;;;;;17.17;9.50;;;9.20;94.30;;;;;;5066306;28;20173;-67
2022/10/13 06:58:47;;;;;;;20.20;10.63;;;9.30;94.20;;;;;;5070131;28;20081;-67
2022/10/13 07:01:13;;;;;;;27.20;10.40;;;9.30;94.20;;;;;;5070320;28;20115;-67
2022/10/13 07:03:39;;;;;;;22.88;10.07;;;9.40;94.20;;;;;;5069937;28;20032;-67
2022/10/13 07:06:05;;;;;;;20.80;10.88;;;9.50;94.00;;;;;;5070582;28;20113;-67
2022/10/13 07:08:34;;;;;;;18.92;9.35;;;9.60;93.80;;;;;;5066208;28;20028;-67
2022/10/13 07:11:05;;;;;;;19.08;10.13;;;9.60;93.80;;;;;;5060290;28;20066;-67
2022/10/13 07:13:31;;;;;;;16.52;9.95;;;9.60;93.70;;;;;;5071263;28;20047;-67
2022/10/13 07:15:56;;;;;;;19.25;11.07;;;9.60;93.60;;;;;;5070685;28;20515;-67
2022/10/13 07:18:22;;;;;;;19.98;9.73;;;9.70;93.50;;;;;;5069021;28;20190;-70
2022/10/13 07:20:47;;;;;;;27.10;9.98;;;9.80;93.50;;;;;;5070194;28;20025;-66
2022/10/13 07:23:13;;;;;;;17.33;9.23;;;9.80;93.40;;;;;;5070810;28;20598;-67
2022/10/13 07:25:38;;;;;;;18.77;10.13;;;9.90;93.30;;;;;;5059753;28;20045;-67
2022/10/13 07:28:04;;;;;;;15.75;9.10;;;10.00;93.30;;;;;;5063649;28;20495;-67
2022/10/13 07:30:29;;;;;;;18.63;9.52;;;10.00;93.20;;;;;;5069126;28;20062;-67
2022/10/13 07:32:55;;;;;;;20.52;10.30;;;10.00;92.80;;;;;;5076010;28;20333;-66
2022/10/13 07:35:21;;;;;;;19.20;9.48;;;10.20;93.00;;;;;;5074023;28;20150;-71
2022/10/13 07:37:46;;;;;;;16.85;8.95;;;10.20;92.90;;;;;;5063547;28;20040;-67
2022/10/13 07:40:12;;;;;;;17.13;9.25;;;10.30;92.90;;;;;;5068674;28;20067;-66
2022/10/13 07:42:37;;;;;;;20.95;9.95;;;10.40;92.70;;;;;;5068091;28;20444;-67
2022/10/13 07:45:03;;;;;;;22.90;9.77;;;10.30;92.40;;;;;;5065974;28;20127;-67
2022/10/13 07:47:28;;;;;;;16.27;9.65;;;10.40;92.50;;;;;;5069382;28;20036;-72
2022/10/13 07:49:54;;;;;;;14.35;9.82;;;10.50;92.60;;;;;;5059321;28;20044;-66
2022/10/13 07:52:20;;;;;;;16.02;9.30;;;10.60;92.40;;;;;;5068065;28;20028;-66
2022/10/13 07:54:45;;;;;;;16.83;9.98;;;10.60;92.10;;;;;;5065702;28;20051;-67
2022/10/13 07:57:11;;;;;;;20.65;10.00;;;10.60;92.10;;;;;;5065743;28;20131;-66
2022/10/13 07:59:36;;;;;;;23.55;9.88;;;10.70;92.10;;;;;;5058196;28;20496;-66
2022/10/13 08:02:05;;;;;;;18.30;10.45;;;10.60;91.90;;;;;;5061785;28;20417;-67
2022/10/13 08:04:32;;;;;;;16.48;9.07;;;10.70;92.00;;;;;;5070031;28;20098;-66
2022/10/13 08:06:57;;;;;;;16.92;9.45;;;10.70;91.90;;;;;;5066544;28;20647;-66
2022/10/13 08:09:24;;;;;;;16.15;10.07;;;10.80;92.00;;;;;;5069531;28;20033;-67
2022/10/13 08:11:50;;;;;;;16.38;9.45;;;10.80;91.60;;;;;;5064355;28;20093;-66
2022/10/13 08:14:15;;;;;;;17.25;9.95;;;11.00;91.80;;;;;;5069571;28;20028;-66
2022/10/13 08:16:44;;;;;;;20.15;9.90;;;11.00;91.60;;;;;;5068440;28;20037;-67
2022/10/13 08:19:13;;;;;;;19.67;10.05;;;11.00;91.10;;;;;;5060173;28;20085;-66
2022/10/13 08:21:39;;;;;;;16.42;9.45;;;11.10;91.20;;;;;;5073046;28;20028;-66
2022/10/13 08:24:06;;;;;;;17.50;9.75;;;11.20;91.10;;;;;;5067734;28;20100;-66
2022/10/13 08:26:32;;;;;;;21.83;9.68;;;11.30;90.90;;;;;;5067457;28;20172;-68
2022/10/13 08:28:57;;;;;;;20.67;9.68;;;11.40;90.70;;;;;;5069481;28;20158;-66
2022/10/13 08:31:23;;;;;;;15.38;8.98;;;11.50;90.60;;;;;;5063183;28;20044;-66
2022/10/13 08:33:50;;;;;;;16.50;9.35;;;11.50;90.20;;;;;;5058474;28;20032;-70
2022/10/13 08:36:16;;;;;;;16.70;9.50;;;11.60;90.30;;;;;;5073688;28;20024;-70
2022/10/13 08:38:42;;;;;;;16.85;9.55;;;11.60;90.10;;;;;;5059942;28;20421;-67
2022/10/13 08:41:18;;;;;;;14.98;8.55;;;11.70;89.70;;;;;;5060403;28;20037;-67
2022/10/13 08:43:53;;;;;;;14.85;8.90;;;11.80;89.90;;;;;;5064075;28;20032;-66
2022/10/13 08:46:26;;;;;;;21.98;9.52;;;11.90;89.50;;;;;;5064641;28;20448;-68
2022/10/13 08:48:55;;;;;;;15.55;8.85;;;12.00;89.60;;;;;;5071278;28;20172;-67
2022/10/13 08:51:20;;;;;;;16.63;9.20;;;12.10;89.30;;;;;;5061204;28;20129;-67
2022/10/13 08:53:47;;;;;;;16.52;9.00;;;12.10;89.30;;;;;;5069333;28;20493;-69
2022/10/13 08:56:19;;;;;;;16.17;9.82;;;12.10;88.90;;;;;;5066479;28;20100;-71
2022/10/13 08:58:45;;;;;;;20.75;9.27;;;12.20;88.80;;;;;;5066134;28;20325;-67
2022/10/13 09:01:29;;;;;;;17.85;9.95;;;12.30;88.00;;;;;;5066911;28;20349;-67
2022/10/13 09:04:15;;;;;;;17.75;9.10;;;12.40;88.10;;;;;;5064028;28;20079;-67
2022/10/13 09:06:45;;;;;;;15.20;8.75;;;12.60;87.60;;;;;;5064425;28;20078;-68
2022/10/13 09:09:13;;;;;;;19.05;9.10;;;12.60;87.50;;;;;;5057761;28;20047;-67
2022/10/13 09:11:42;;;;;;;17.00;9.13;;;12.80;88.00;;;;;;5063088;28;20024;-67
2022/10/13 09:14:10;;;;;;;15.52;9.27;;;12.80;87.10;;;;;;5062044;28;20052;-67
2022/10/13 09:16:39;;;;;;;19.40;9.07;;;13.00;86.80;;;;;;5057176;28;20475;-67
2022/10/13 09:19:16;;;;;;;16.60;9.05;;;13.10;86.30;;;;;;5071057;28;20107;-67
2022/10/13 09:21:42;;;;;;;17.95;9.30;;;13.00;85.80;;;;;;5061482;28;20086;-67
2022/10/13 09:24:16;;;;;;;16.15;8.70;;;13.10;85.40;;;;;;5059878;28;20544;-67
2022/10/13 09:26:43;;;;;;;14.80;8.77;;;13.10;86.00;;;;;;5061740;28;20989;-68
2022/10/13 09:29:23;;;;;;;19.05;9.68;;;13.10;86.20;;;;;;5065390;28;20509;-67
2022/10/13 09:31:49;;;;;;;15.97;9.57;;;13.30;85.70;;;;;;5067738;28;20032;-67
2022/10/13 09:34:18;;;;;;;17.73;8.30;;;13.20;85.80;;;;;;5067993;28;20328;-67
2022/10/13 09:36:55;;;;;;;16.70;8.77;;;13.20;86.10;;;;;;5067084;28;20453;-67
2022/10/13 09:39:21;;;;;;;12.60;7.80;;;13.20;86.00;;;;;;5060995;28;20373;-67
2022/10/13 09:41:47;;;;;;;15.38;8.02;;;13.10;86.20;;;;;;5056743;28;20036;-69
2022/10/13 09:44:17;;;;;;;17.10;8.43;;;13.10;85.80;;;;;;5067725;28;20032;-67
2022/10/13 09:46:57;;;;;;;18.08;8.85;;;13.10;85.90;;;;;;5061662;28;20032;-67
2022/10/13 09:49:34;;;;;;;16.02;8.65;;;13.10;85.90;;;;;;5066418;28;20036;-68
2022/10/13 09:52:11;;;;;;;18.00;8.98;;;13.10;86.10;;;;;;5069702;28;20140;-67
2022/10/13 09:54:37;;;;;;;15.50;8.93;;;13.20;86.30;;;;;;5055014;28;20738;-67
2022/10/13 09:57:11;;;;;;;17.27;8.98;;;13.40;85.80;;;;;;5067111;28;20044;-66
2022/10/13 09:59:46;;;;;;;17.85;8.35;;;13.50;85.70;;;;;;5060262;28;20164;-66
2022/10/13 10:02:27;;;;;;;15.82;8.50;;;13.60;85.00;;;;;;5072153;28;20095;-66
2022/10/13 10:04:55;;;;;;;14.93;9.05;;;13.60;85.10;;;;;;5074477;28;20040;-67
2022/10/13 10:07:26;;;;;;;18.02;9.05;;;13.60;84.80;;;;;;5065595;28;20037;-66
2022/10/13 10:10:00;;;;;;;19.55;9.27;;;13.80;84.40;;;;;;5070288;28;20044;-67
2022/10/13 10:12:29;;;;;;;16.20;9.18;;;14.10;84.20;;;;;;5064760;28;20029;-67
2022/10/13 10:14:54;;;;;;;15.23;8.10;;;14.20;83.20;;;;;;5068284;28;20028;-66
2022/10/13 10:17:41;;;;;;;17.35;8.95;;;14.40;83.80;;;;;;5065673;28;20028;-66
2022/10/13 10:20:37;;;;;;;15.85;8.38;;;14.80;83.40;;;;;;5069522;28;20032;-67
2022/10/13 10:23:21;;;;;;;14.73;8.13;;;15.10;80.70;;;;;;5061421;28;20039;-66
2022/10/13 10:25:58;;;;;;;18.20;9.32;;;15.60;81.50;;;;;;5067045;28;20569;-70
2022/10/13 10:28:49;;;;;;;17.75;8.50;;;15.80;80.00;;;;;;5058938;28;20407;-67
2022/10/13 10:31:28;;;;;;;;;;;16.00;80.00;;;;;;5067476;28;20032;-68
2022/10/13 10:34:05;;;;;;;13.52;7.75;;;15.90;78.70;;;;;;5073429;28;19923;-67
2022/10/13 10:36:48;;;;;;;14.20;8.27;;;15.80;79.30;;;;;;5071488;28;20032;-67
2022/10/13 10:39:26;;;;;;;14.63;8.52;;;15.70;80.10;;;;;;5069627;28;20071;-67
2022/10/13 10:42:05;;;;;;;13.18;9.18;;;15.60;79.30;;;;;;5072089;28;20036;-71
2022/10/13 10:44:36;;;;;;;14.98;8.73;;;15.50;80.40;;;;;;5066105;28;20040;-67
2022/10/13 10:47:06;;;;;;;12.27;8.07;;;15.60;80.30;;;;;;5065091;28;20183;-68
2022/10/13 10:49:34;;;;;;;17.75;8.75;;;15.60;80.00;;;;;;5059782;28;20473;-67
2022/10/13 10:52:04;;;;;;;14.68;8.38;;;15.60;80.20;;;;;;5067299;28;20074;-67
2022/10/13 10:54:49;;;;;;;13.73;8.32;;;16.00;80.40;;;;;;5065542;28;20109;-67
2022/10/13 10:57:26;;;;;;;16.15;8.63;;;16.00;79.60;;;;;;5063930;28;20020;-66
2022/10/13 10:59:58;;;;;;;15.73;8.73;;;16.00;79.20;;;;;;5071308;28;20124;-67
2022/10/13 11:02:40;;;;;;;15.55;8.40;;;15.60;79.60;;;;;;5063429;28;20361;-66
2022/10/13 11:05:06;;;;;;;13.85;9.05;;;15.60;79.70;;;;;;5064478;28;20077;-68
2022/10/13 11:07:31;;;;;;;17.63;8.45;;;15.60;80.30;;;;;;5062122;28;20513;-68
2022/10/13 11:10:15;;;;;;;17.15;8.57;;;15.50;80.00;;;;;;5068616;28;20419;-68
2022/10/13 11:13:14;;;;;;;22.30;8.85;;;15.80;80.20;;;;;;5067836;28;20059;-68
2022/10/13 11:15:42;;;;;;;16.83;8.35;;;16.20;80.30;;;;;;5059487;28;20151;-68
2022/10/13 11:18:45;;;;;;;18.98;8.88;;;16.60;78.80;;;;;;5071022;28;20093;-68
2022/10/13 11:21:11;;;;;;;15.30;8.13;;;16.80;76.70;;;;;;5072130;28;20037;-68
2022/10/13 11:23:44;;;;;;;18.85;8.38;;;17.00;76.90;;;;;;5065001;28;20098;-69
2022/10/13 11:26:24;;;;;;;17.35;8.50;;;17.00;76.40;;;;;;5061697;28;20640;-67
2022/10/13 11:28:50;;;;;;;13.30;8.02;;;16.90;76.90;;;;;;5070622;28;20173;-68
2022/10/13 11:31:46;;;;;;;16.05;7.80;;;16.70;77.30;;;;;;5070048;28;20372;-68
2022/10/13 11:34:31;;;;;;;18.65;9.35;;;16.50;78.20;;;;;;5070745;28;20111;-68
2022/10/13 11:37:00;;;;;;;19.98;9.40;;;16.30;79.00;;;;;;5069946;28;20058;-68
2022/10/13 11:39:26;;;;;;;15.73;8.20;;;16.20;78.90;;;;;;5066218;28;20072;-68
2022/10/13 11:42:11;;;;;;;21.30;8.50;;;16.20;78.90;;;;;;5062717;28;20274;-68
2022/10/13 11:44:53;;;;;;;16.15;8.85;;;16.40;78.90;;;;;;5069992;28;20445;-69
2022/10/13 11:47:52;;;;;;;17.15;8.70;;;16.50;78.40;;;;;;5058401;28;20448;-69
2022/10/13 11:50:33;;;;;;;18.63;8.40;;;16.70;78.60;;;;;;5063070;28;20056;-69
2022/10/13 11:53:17;;;;;;;15.50;7.60;;;17.20;76.70;;;;;;5072985;28;20036;-69
2022/10/13 11:55:52;;;;;;;14.70;8.70;;;18.00;75.80;;;;;;5055458;28;20266;-70
2022/10/13 11:58:22;;;;;;;17.20;8.48;;;17.70;74.00;;;;;;5066662;28;20487;-70
2022/10/13 12:01:10;;;;;;;12.52;7.25;;;17.60;74.00;;;;;;5070535;28;20036;-70
2022/10/13 12:03:39;;;;;;;12.48;7.80;;;17.50;74.90;;;;;;5068219;28;20689;-70
2022/10/13 12:06:15;;;;;;;16.10;7.60;;;17.00;76.50;;;;;;5068078;28;20028;-70
2022/10/13 12:08:46;;;;;;;15.82;8.13;;;16.80;77.00;;;;;;5069229;28;20469;-69
2022/10/13 12:11:24;;;;;;;13.63;8.18;;;16.70;77.00;;;;;;5065568;28;20032;-69
2022/10/13 12:13:50;;;;;;;14.95;7.95;;;16.50;78.10;;;;;;5062453;28;20482;-69
2022/10/13 12:16:17;;;;;;;17.33;8.30;;;16.50;78.70;;;;;;5067425;28;20086;-69
2022/10/13 12:18:42;;;;;;;15.35;7.70;;;16.80;77.60;;;;;;5068252;28;20048;-69
2022/10/13 12:21:14;;;;;;;23.42;8.13;;;16.90;77.70;;;;;;5069788;28;20028;-69
2022/10/13 12:23:40;;;;;;;14.23;7.60;;;17.00;76.90;;;;;;5069813;28;20104;-69
2022/10/13 12:26:06;;;;;;;14.32;7.22;;;17.20;76.50;;;;;;5065663;28;20379;-69
2022/10/13 12:28:59;;;;;;;16.02;7.03;;;17.60;75.40;;;;;;5069686;28;20036;-70
2022/10/13 12:31:43;;;;;;;14.30;7.05;;;18.10;74.60;;;;;;5064843;28;20063;-70
2022/10/13 12:34:22;;;;;;;16.60;7.28;;;18.90;73.20;;;;;;5066904;28;20436;-70
2022/10/13 12:36:58;;;;;;;13.48;7.03;;;19.10;70.40;;;;;;5066258;28;20076;-69
2022/10/13 12:39:25;;;;;;;11.93;6.18;;;18.60;70.10;;;;;;5067719;28;20377;-69
2022/10/13 12:41:52;;;;;;;16.90;6.78;;;18.50;72.20;;;;;;5067506;28;20069;-69
2022/10/13 12:44:24;;;;;;;11.77;6.10;;;18.00;72.20;;;;;;5068845;28;20444;-68
2022/10/13 12:46:51;;;;;;;10.77;6.43;;;17.80;73.90;;;;;;5069027;28;20122;-69
2022/10/13 12:49:22;;;;;;;14.73;6.43;;;17.60;74.20;;;;;;5062220;28;20029;-69
2022/10/13 12:51:52;;;;;;;13.77;6.38;;;17.40;75.80;;;;;;5077044;28;20032;-69
2022/10/13 12:54:27;;;;;;;12.57;6.30;;;17.30;76.50;;;;;;5077282;28;20040;-69
2022/10/13 12:56:55;;;;;;;14.85;6.25;;;16.90;76.40;;;;;;5065144;28;20090;-69
2022/10/13 12:59:23;;;;;;;12.40;5.78;;;17.00;77.50;;;;;;5067697;28;20036;-69